sensor_id;sensor_type;location;lat;lon;timestamp;P1;durP1;ratioP1;P2;durP2;ratioP2
12910;SDS011;6523;49.758;6.120;2023-08-06T00:01:12;2.27;;;1.93;;
12910;SDS011;6523;49.758;6.120;2023-08-06T00:03:38;3.97;;;2.10;;
12910;SDS011;6523;49.758;6.120;2023-08-06T00:06:06;3.73;;;1.97;;
12910;SDS011;6523;49.758;6.120;2023-08-06T00:08:32;4.33;;;2.63;;
12910;SDS011;6523;49.758;6.120;2023-08-06T00:10:57;3.60;;;2.10;;
12910;SDS011;6523;49.758;6.120;2023-08-06T00:13:23;3.37;;;1.93;;
12910;SDS011;6523;49.758;6.120;2023-08-06T00:15:48;3.27;;;2.10;;
12910;SDS011;6523;49.758;6.120;2023-08-06T00:18:14;3.40;;;1.80;;
12910;SDS011;6523;49.758;6.120;2023-08-06T00:20:39;3.60;;;2.07;;
12910;SDS011;6523;49.758;6.120;2023-08-06T00:23:06;3.47;;;2.40;;
12910;SDS011;6523;49.758;6.120;2023-08-06T00:25:32;5.83;;;2.50;;
12910;SDS011;6523;49.758;6.120;2023-08-06T00:27:57;2.43;;;1.97;;
12910;SDS011;6523;49.758;6.120;2023-08-06T00:30:23;4.37;;;2.10;;
12910;SDS011;6523;49.758;6.120;2023-08-06T00:32:48;3.43;;;1.57;;
12910;SDS011;6523;49.758;6.120;2023-08-06T00:35:14;3.20;;;2.07;;
12910;SDS011;6523;49.758;6.120;2023-08-06T00:37:40;2.50;;;1.47;;
12910;SDS011;6523;49.758;6.120;2023-08-06T00:40:06;4.03;;;1.90;;
12910;SDS011;6523;49.758;6.120;2023-08-06T00:42:32;1.67;;;1.30;;
12910;SDS011;6523;49.758;6.120;2023-08-06T00:44:59;3.77;;;2.00;;
12910;SDS011;6523;49.758;6.120;2023-08-06T00:47:25;3.10;;;1.90;;
12910;SDS011;6523;49.758;6.120;2023-08-06T00:49:51;3.40;;;1.50;;
12910;SDS011;6523;49.758;6.120;2023-08-06T00:52:17;2.70;;;1.70;;
12910;SDS011;6523;49.758;6.120;2023-08-06T00:54:42;2.50;;;1.50;;
12910;SDS011;6523;49.758;6.120;2023-08-06T00:57:08;3.87;;;1.13;;
12910;SDS011;6523;49.758;6.120;2023-08-06T00:59:34;1.10;;;1.00;;
12910;SDS011;6523;49.758;6.120;2023-08-06T01:02:00;1.43;;;1.20;;
12910;SDS011;6523;49.758;6.120;2023-08-06T01:04:26;1.03;;;1.00;;
12910;SDS011;6523;49.758;6.120;2023-08-06T01:06:55;4.03;;;1.07;;
12910;SDS011;6523;49.758;6.120;2023-08-06T01:09:49;0.87;;;0.77;;
12910;SDS011;6523;49.758;6.120;2023-08-06T01:12:32;2.73;;;0.90;;
12910;SDS011;6523;49.758;6.120;2023-08-06T01:15:27;2.37;;;0.80;;
12910;SDS011;6523;49.758;6.120;2023-08-06T01:17:56;0.70;;;0.70;;
12910;SDS011;6523;49.758;6.120;2023-08-06T01:20:26;0.50;;;0.50;;
12910;SDS011;6523;49.758;6.120;2023-08-06T01:22:53;1.70;;;0.57;;
12910;SDS011;6523;49.758;6.120;2023-08-06T01:25:18;1.40;;;0.50;;
12910;SDS011;6523;49.758;6.120;2023-08-06T01:27:45;0.37;;;0.37;;
12910;SDS011;6523;49.758;6.120;2023-08-06T01:30:16;1.50;;;0.60;;
12910;SDS011;6523;49.758;6.120;2023-08-06T01:32:48;1.80;;;0.60;;
12910;SDS011;6523;49.758;6.120;2023-08-06T01:35:18;0.93;;;0.40;;
12910;SDS011;6523;49.758;6.120;2023-08-06T01:37:45;0.40;;;0.40;;
12910;SDS011;6523;49.758;6.120;2023-08-06T01:40:12;0.50;;;0.50;;
12910;SDS011;6523;49.758;6.120;2023-08-06T01:42:38;0.30;;;0.30;;
12910;SDS011;6523;49.758;6.120;2023-08-06T01:45:05;0.90;;;0.30;;
12910;SDS011;6523;49.758;6.120;2023-08-06T01:47:32;0.87;;;0.50;;
12910;SDS011;6523;49.758;6.120;2023-08-06T01:49:58;0.60;;;0.43;;
12910;SDS011;6523;49.758;6.120;2023-08-06T01:52:23;2.10;;;0.40;;
12910;SDS011;6523;49.758;6.120;2023-08-06T01:54:49;0.63;;;0.37;;
12910;SDS011;6523;49.758;6.120;2023-08-06T01:57:14;0.40;;;0.37;;
12910;SDS011;6523;49.758;6.120;2023-08-06T01:59:40;0.83;;;0.50;;
12910;SDS011;6523;49.758;6.120;2023-08-06T02:02:05;0.63;;;0.30;;
12910;SDS011;6523;49.758;6.120;2023-08-06T02:04:31;0.50;;;0.50;;
12910;SDS011;6523;49.758;6.120;2023-08-06T02:06:56;2.47;;;0.60;;
12910;SDS011;6523;49.758;6.120;2023-08-06T02:09:22;0.50;;;0.40;;
12910;SDS011;6523;49.758;6.120;2023-08-06T02:11:47;3.23;;;0.50;;
12910;SDS011;6523;49.758;6.120;2023-08-06T02:14:13;1.07;;;0.50;;
12910;SDS011;6523;49.758;6.120;2023-08-06T02:16:38;0.60;;;0.60;;
12910;SDS011;6523;49.758;6.120;2023-08-06T02:19:04;0.60;;;0.60;;
12910;SDS011;6523;49.758;6.120;2023-08-06T02:21:29;2.33;;;0.70;;
12910;SDS011;6523;49.758;6.120;2023-08-06T02:23:55;1.30;;;0.53;;
12910;SDS011;6523;49.758;6.120;2023-08-06T02:26:20;0.67;;;0.40;;
12910;SDS011;6523;49.758;6.120;2023-08-06T02:28:46;1.73;;;0.50;;
12910;SDS011;6523;49.758;6.120;2023-08-06T02:31:11;0.60;;;0.50;;
12910;SDS011;6523;49.758;6.120;2023-08-06T02:33:37;1.27;;;0.60;;
12910;SDS011;6523;49.758;6.120;2023-08-06T02:36:03;1.60;;;0.70;;
12910;SDS011;6523;49.758;6.120;2023-08-06T02:38:29;1.63;;;0.60;;
12910;SDS011;6523;49.758;6.120;2023-08-06T02:40:55;0.80;;;0.70;;
12910;SDS011;6523;49.758;6.120;2023-08-06T02:43:21;2.00;;;0.70;;
12910;SDS011;6523;49.758;6.120;2023-08-06T02:45:46;0.97;;;0.70;;
12910;SDS011;6523;49.758;6.120;2023-08-06T02:48:12;1.13;;;0.80;;
12910;SDS011;6523;49.758;6.120;2023-08-06T02:50:41;1.03;;;0.63;;
12910;SDS011;6523;49.758;6.120;2023-08-06T02:53:07;0.70;;;0.70;;
12910;SDS011;6523;49.758;6.120;2023-08-06T02:55:33;0.97;;;0.83;;
12910;SDS011;6523;49.758;6.120;2023-08-06T02:57:59;1.47;;;1.10;;
12910;SDS011;6523;49.758;6.120;2023-08-06T03:00:25;4.43;;;0.80;;
12910;SDS011;6523;49.758;6.120;2023-08-06T03:02:51;1.07;;;0.63;;
12910;SDS011;6523;49.758;6.120;2023-08-06T03:05:17;1.23;;;0.70;;
12910;SDS011;6523;49.758;6.120;2023-08-06T03:07:43;3.20;;;1.20;;
12910;SDS011;6523;49.758;6.120;2023-08-06T03:10:08;0.60;;;0.60;;
12910;SDS011;6523;49.758;6.120;2023-08-06T03:12:34;2.00;;;0.77;;
12910;SDS011;6523;49.758;6.120;2023-08-06T03:15:00;0.93;;;0.80;;
12910;SDS011;6523;49.758;6.120;2023-08-06T03:17:25;1.13;;;0.93;;
12910;SDS011;6523;49.758;6.120;2023-08-06T03:19:51;0.73;;;0.73;;
12910;SDS011;6523;49.758;6.120;2023-08-06T03:22:16;1.00;;;0.90;;
12910;SDS011;6523;49.758;6.120;2023-08-06T03:24:42;3.60;;;0.97;;
12910;SDS011;6523;49.758;6.120;2023-08-06T03:27:07;1.17;;;0.90;;
12910;SDS011;6523;49.758;6.120;2023-08-06T03:29:33;1.20;;;1.00;;
12910;SDS011;6523;49.758;6.120;2023-08-06T03:31:58;1.20;;;1.10;;
12910;SDS011;6523;49.758;6.120;2023-08-06T03:34:24;1.97;;;0.93;;
12910;SDS011;6523;49.758;6.120;2023-08-06T03:36:50;4.10;;;1.30;;
12910;SDS011;6523;49.758;6.120;2023-08-06T03:39:15;1.40;;;1.00;;
12910;SDS011;6523;49.758;6.120;2023-08-06T03:41:40;2.83;;;1.23;;
12910;SDS011;6523;49.758;6.120;2023-08-06T03:44:06;3.03;;;1.20;;
12910;SDS011;6523;49.758;6.120;2023-08-06T03:46:32;2.40;;;1.20;;
12910;SDS011;6523;49.758;6.120;2023-08-06T03:48:59;3.93;;;1.20;;
12910;SDS011;6523;49.758;6.120;2023-08-06T03:51:24;1.63;;;1.00;;
12910;SDS011;6523;49.758;6.120;2023-08-06T03:53:50;1.23;;;0.90;;
12910;SDS011;6523;49.758;6.120;2023-08-06T03:56:16;0.80;;;0.80;;
12910;SDS011;6523;49.758;6.120;2023-08-06T03:58:41;1.00;;;0.80;;
12910;SDS011;6523;49.758;6.120;2023-08-06T04:01:07;1.60;;;0.93;;
12910;SDS011;6523;49.758;6.120;2023-08-06T04:03:32;1.27;;;0.80;;
12910;SDS011;6523;49.758;6.120;2023-08-06T04:05:58;0.80;;;0.80;;
12910;SDS011;6523;49.758;6.120;2023-08-06T04:08:23;2.17;;;0.90;;
12910;SDS011;6523;49.758;6.120;2023-08-06T04:10:49;1.37;;;1.03;;
12910;SDS011;6523;49.758;6.120;2023-08-06T04:13:18;0.83;;;0.70;;
12910;SDS011;6523;49.758;6.120;2023-08-06T04:15:44;2.07;;;1.00;;
12910;SDS011;6523;49.758;6.120;2023-08-06T04:18:09;4.07;;;1.00;;
12910;SDS011;6523;49.758;6.120;2023-08-06T04:20:43;0.97;;;0.80;;
12910;SDS011;6523;49.758;6.120;2023-08-06T04:23:09;0.80;;;0.80;;
12910;SDS011;6523;49.758;6.120;2023-08-06T04:25:35;2.47;;;1.00;;
12910;SDS011;6523;49.758;6.120;2023-08-06T04:28:00;0.70;;;0.70;;
12910;SDS011;6523;49.758;6.120;2023-08-06T04:30:26;1.63;;;0.70;;
12910;SDS011;6523;49.758;6.120;2023-08-06T04:32:51;1.00;;;0.87;;
12910;SDS011;6523;49.758;6.120;2023-08-06T04:35:17;0.80;;;0.70;;
12910;SDS011;6523;49.758;6.120;2023-08-06T04:37:43;0.73;;;0.70;;
12910;SDS011;6523;49.758;6.120;2023-08-06T04:40:08;0.83;;;0.80;;
12910;SDS011;6523;49.758;6.120;2023-08-06T04:42:34;1.17;;;0.93;;
12910;SDS011;6523;49.758;6.120;2023-08-06T04:45:01;1.10;;;1.10;;
12910;SDS011;6523;49.758;6.120;2023-08-06T04:47:27;1.33;;;0.93;;
12910;SDS011;6523;49.758;6.120;2023-08-06T04:49:53;1.63;;;1.30;;
12910;SDS011;6523;49.758;6.120;2023-08-06T04:52:18;1.73;;;1.00;;
12910;SDS011;6523;49.758;6.120;2023-08-06T04:54:44;1.37;;;1.23;;
12910;SDS011;6523;49.758;6.120;2023-08-06T04:57:09;1.40;;;1.30;;
12910;SDS011;6523;49.758;6.120;2023-08-06T04:59:35;1.10;;;1.00;;
12910;SDS011;6523;49.758;6.120;2023-08-06T05:02:00;1.60;;;1.37;;
12910;SDS011;6523;49.758;6.120;2023-08-06T05:04:26;2.43;;;1.10;;
12910;SDS011;6523;49.758;6.120;2023-08-06T05:06:52;1.43;;;1.33;;
12910;SDS011;6523;49.758;6.120;2023-08-06T05:09:18;1.50;;;1.20;;
12910;SDS011;6523;49.758;6.120;2023-08-06T05:11:43;1.23;;;1.13;;
12910;SDS011;6523;49.758;6.120;2023-08-06T05:14:09;2.93;;;1.20;;
12910;SDS011;6523;49.758;6.120;2023-08-06T05:16:34;1.23;;;1.10;;
12910;SDS011;6523;49.758;6.120;2023-08-06T05:19:00;3.00;;;1.13;;
12910;SDS011;6523;49.758;6.120;2023-08-06T05:21:25;0.90;;;0.90;;
12910;SDS011;6523;49.758;6.120;2023-08-06T05:23:51;1.13;;;0.97;;
12910;SDS011;6523;49.758;6.120;2023-08-06T05:26:16;0.80;;;0.80;;
12910;SDS011;6523;49.758;6.120;2023-08-06T05:28:44;0.80;;;0.80;;
12910;SDS011;6523;49.758;6.120;2023-08-06T05:31:10;1.47;;;0.80;;
12910;SDS011;6523;49.758;6.120;2023-08-06T05:33:36;1.53;;;0.83;;
12910;SDS011;6523;49.758;6.120;2023-08-06T05:36:01;0.70;;;0.70;;
12910;SDS011;6523;49.758;6.120;2023-08-06T05:38:27;1.53;;;1.20;;
12910;SDS011;6523;49.758;6.120;2023-08-06T05:40:52;1.07;;;0.90;;
12910;SDS011;6523;49.758;6.120;2023-08-06T05:43:18;1.10;;;1.10;;
12910;SDS011;6523;49.758;6.120;2023-08-06T05:45:44;0.70;;;0.70;;
12910;SDS011;6523;49.758;6.120;2023-08-06T05:48:11;1.13;;;1.10;;
12910;SDS011;6523;49.758;6.120;2023-08-06T05:50:37;1.90;;;0.70;;
12910;SDS011;6523;49.758;6.120;2023-08-06T05:53:02;0.70;;;0.70;;
12910;SDS011;6523;49.758;6.120;2023-08-06T05:55:28;0.80;;;0.80;;
12910;SDS011;6523;49.758;6.120;2023-08-06T05:57:54;0.77;;;0.77;;
12910;SDS011;6523;49.758;6.120;2023-08-06T06:00:20;0.80;;;0.80;;
12910;SDS011;6523;49.758;6.120;2023-08-06T06:02:46;0.63;;;0.60;;
12910;SDS011;6523;49.758;6.120;2023-08-06T06:05:12;0.67;;;0.67;;
12910;SDS011;6523;49.758;6.120;2023-08-06T06:07:37;0.50;;;0.50;;
12910;SDS011;6523;49.758;6.120;2023-08-06T06:10:03;0.70;;;0.70;;
12910;SDS011;6523;49.758;6.120;2023-08-06T06:12:29;0.80;;;0.70;;
12910;SDS011;6523;49.758;6.120;2023-08-06T06:14:54;1.33;;;0.50;;
12910;SDS011;6523;49.758;6.120;2023-08-06T06:17:20;0.50;;;0.50;;
12910;SDS011;6523;49.758;6.120;2023-08-06T06:19:46;0.50;;;0.50;;
12910;SDS011;6523;49.758;6.120;2023-08-06T06:22:12;0.50;;;0.50;;
12910;SDS011;6523;49.758;6.120;2023-08-06T06:24:37;0.73;;;0.60;;
12910;SDS011;6523;49.758;6.120;2023-08-06T06:27:03;0.67;;;0.60;;
12910;SDS011;6523;49.758;6.120;2023-08-06T06:29:29;0.50;;;0.50;;
12910;SDS011;6523;49.758;6.120;2023-08-06T06:31:54;0.63;;;0.60;;
12910;SDS011;6523;49.758;6.120;2023-08-06T06:34:20;0.50;;;0.50;;
12910;SDS011;6523;49.758;6.120;2023-08-06T06:36:46;0.50;;;0.50;;
12910;SDS011;6523;49.758;6.120;2023-08-06T06:39:11;0.53;;;0.50;;
12910;SDS011;6523;49.758;6.120;2023-08-06T06:41:37;0.50;;;0.50;;
12910;SDS011;6523;49.758;6.120;2023-08-06T06:44:02;0.70;;;0.70;;
12910;SDS011;6523;49.758;6.120;2023-08-06T06:46:28;0.63;;;0.63;;
12910;SDS011;6523;49.758;6.120;2023-08-06T06:48:54;0.77;;;0.50;;
12910;SDS011;6523;49.758;6.120;2023-08-06T06:51:19;1.63;;;0.80;;
12910;SDS011;6523;49.758;6.120;2023-08-06T06:53:45;1.00;;;0.60;;
12910;SDS011;6523;49.758;6.120;2023-08-06T06:56:10;0.50;;;0.50;;
12910;SDS011;6523;49.758;6.120;2023-08-06T06:58:36;0.60;;;0.60;;
12910;SDS011;6523;49.758;6.120;2023-08-06T07:01:03;0.83;;;0.53;;
12910;SDS011;6523;49.758;6.120;2023-08-06T07:03:29;0.60;;;0.60;;
12910;SDS011;6523;49.758;6.120;2023-08-06T07:05:57;0.80;;;0.80;;
12910;SDS011;6523;49.758;6.120;2023-08-06T07:08:26;0.63;;;0.63;;
12910;SDS011;6523;49.758;6.120;2023-08-06T07:10:59;1.03;;;0.60;;
12910;SDS011;6523;49.758;6.120;2023-08-06T07:13:26;0.53;;;0.53;;
12910;SDS011;6523;49.758;6.120;2023-08-06T07:15:52;0.63;;;0.50;;
12910;SDS011;6523;49.758;6.120;2023-08-06T07:18:17;0.40;;;0.40;;
12910;SDS011;6523;49.758;6.120;2023-08-06T07:20:47;0.47;;;0.47;;
12910;SDS011;6523;49.758;6.120;2023-08-06T07:23:14;0.40;;;0.40;;
12910;SDS011;6523;49.758;6.120;2023-08-06T07:25:39;0.67;;;0.67;;
12910;SDS011;6523;49.758;6.120;2023-08-06T07:28:05;0.93;;;0.40;;
12910;SDS011;6523;49.758;6.120;2023-08-06T07:30:30;0.50;;;0.37;;
12910;SDS011;6523;49.758;6.120;2023-08-06T07:32:56;0.87;;;0.40;;
12910;SDS011;6523;49.758;6.120;2023-08-06T07:35:21;0.50;;;0.50;;
12910;SDS011;6523;49.758;6.120;2023-08-06T07:37:47;0.50;;;0.50;;
12910;SDS011;6523;49.758;6.120;2023-08-06T07:40:13;0.50;;;0.50;;
12910;SDS011;6523;49.758;6.120;2023-08-06T07:42:39;0.40;;;0.40;;
12910;SDS011;6523;49.758;6.120;2023-08-06T07:45:04;0.50;;;0.50;;
12910;SDS011;6523;49.758;6.120;2023-08-06T07:47:32;0.50;;;0.50;;
12910;SDS011;6523;49.758;6.120;2023-08-06T07:49:57;0.50;;;0.50;;
12910;SDS011;6523;49.758;6.120;2023-08-06T07:52:23;0.60;;;0.60;;
12910;SDS011;6523;49.758;6.120;2023-08-06T07:54:48;0.50;;;0.50;;
12910;SDS011;6523;49.758;6.120;2023-08-06T07:57:14;0.57;;;0.57;;
12910;SDS011;6523;49.758;6.120;2023-08-06T07:59:40;0.63;;;0.63;;
12910;SDS011;6523;49.758;6.120;2023-08-06T08:02:05;1.00;;;0.60;;
12910;SDS011;6523;49.758;6.120;2023-08-06T08:04:31;2.17;;;0.83;;
12910;SDS011;6523;49.758;6.120;2023-08-06T08:06:57;0.73;;;0.73;;
12910;SDS011;6523;49.758;6.120;2023-08-06T08:09:22;0.80;;;0.80;;
12910;SDS011;6523;49.758;6.120;2023-08-06T08:11:48;0.90;;;0.70;;
12910;SDS011;6523;49.758;6.120;2023-08-06T08:14:15;0.60;;;0.60;;
12910;SDS011;6523;49.758;6.120;2023-08-06T08:16:40;1.67;;;0.60;;
12910;SDS011;6523;49.758;6.120;2023-08-06T08:19:06;0.63;;;0.53;;
12910;SDS011;6523;49.758;6.120;2023-08-06T08:21:32;1.00;;;0.80;;
12910;SDS011;6523;49.758;6.120;2023-08-06T08:23:59;0.60;;;0.60;;
12910;SDS011;6523;49.758;6.120;2023-08-06T08:26:25;0.60;;;0.60;;
12910;SDS011;6523;49.758;6.120;2023-08-06T08:28:52;0.40;;;0.40;;
12910;SDS011;6523;49.758;6.120;2023-08-06T08:31:18;0.67;;;0.50;;
12910;SDS011;6523;49.758;6.120;2023-08-06T08:33:44;0.60;;;0.60;;
12910;SDS011;6523;49.758;6.120;2023-08-06T08:36:09;1.33;;;0.80;;
12910;SDS011;6523;49.758;6.120;2023-08-06T08:38:35;0.70;;;0.60;;
12910;SDS011;6523;49.758;6.120;2023-08-06T08:41:01;0.70;;;0.60;;
12910;SDS011;6523;49.758;6.120;2023-08-06T08:43:26;0.70;;;0.70;;
12910;SDS011;6523;49.758;6.120;2023-08-06T08:45:54;0.80;;;0.70;;
12910;SDS011;6523;49.758;6.120;2023-08-06T08:48:25;0.60;;;0.60;;
12910;SDS011;6523;49.758;6.120;2023-08-06T08:50:54;0.87;;;0.87;;
12910;SDS011;6523;49.758;6.120;2023-08-06T08:53:21;1.40;;;1.10;;
12910;SDS011;6523;49.758;6.120;2023-08-06T08:55:47;2.87;;;0.90;;
12910;SDS011;6523;49.758;6.120;2023-08-06T08:58:14;1.67;;;1.00;;
12910;SDS011;6523;49.758;6.120;2023-08-06T09:00:43;1.67;;;1.10;;
12910;SDS011;6523;49.758;6.120;2023-08-06T09:03:11;1.87;;;1.10;;
12910;SDS011;6523;49.758;6.120;2023-08-06T09:05:36;1.40;;;1.10;;
12910;SDS011;6523;49.758;6.120;2023-08-06T09:08:08;2.87;;;1.00;;
12910;SDS011;6523;49.758;6.120;2023-08-06T09:10:36;2.40;;;1.10;;
12910;SDS011;6523;49.758;6.120;2023-08-06T09:13:03;3.03;;;1.57;;
12910;SDS011;6523;49.758;6.120;2023-08-06T09:15:29;2.00;;;1.40;;
12910;SDS011;6523;49.758;6.120;2023-08-06T09:17:56;1.70;;;1.43;;
12910;SDS011;6523;49.758;6.120;2023-08-06T09:20:21;3.30;;;1.70;;
12910;SDS011;6523;49.758;6.120;2023-08-06T09:22:47;2.60;;;1.53;;
12910;SDS011;6523;49.758;6.120;2023-08-06T09:25:23;2.73;;;1.60;;
12910;SDS011;6523;49.758;6.120;2023-08-06T09:27:50;2.20;;;1.53;;
12910;SDS011;6523;49.758;6.120;2023-08-06T09:30:38;3.03;;;1.60;;
12910;SDS011;6523;49.758;6.120;2023-08-06T09:33:03;3.10;;;1.60;;
12910;SDS011;6523;49.758;6.120;2023-08-06T09:35:29;3.07;;;1.73;;
12910;SDS011;6523;49.758;6.120;2023-08-06T09:37:56;2.80;;;1.60;;
12910;SDS011;6523;49.758;6.120;2023-08-06T09:40:35;5.47;;;1.83;;
12910;SDS011;6523;49.758;6.120;2023-08-06T09:43:01;1.93;;;1.27;;
12910;SDS011;6523;49.758;6.120;2023-08-06T09:45:31;1.33;;;1.00;;
12910;SDS011;6523;49.758;6.120;2023-08-06T09:47:58;1.43;;;0.90;;
12910;SDS011;6523;49.758;6.120;2023-08-06T09:50:28;2.27;;;1.40;;
12910;SDS011;6523;49.758;6.120;2023-08-06T09:52:56;2.20;;;1.10;;
12910;SDS011;6523;49.758;6.120;2023-08-06T09:55:22;1.97;;;1.20;;
12910;SDS011;6523;49.758;6.120;2023-08-06T09:57:49;1.93;;;1.20;;
12910;SDS011;6523;49.758;6.120;2023-08-06T10:00:16;1.03;;;0.90;;
12910;SDS011;6523;49.758;6.120;2023-08-06T10:02:42;1.27;;;0.80;;
12910;SDS011;6523;49.758;6.120;2023-08-06T10:05:09;0.87;;;0.77;;
12910;SDS011;6523;49.758;6.120;2023-08-06T10:07:35;2.47;;;0.80;;
12910;SDS011;6523;49.758;6.120;2023-08-06T10:10:02;1.60;;;0.77;;
12910;SDS011;6523;49.758;6.120;2023-08-06T10:12:28;1.07;;;0.70;;
12910;SDS011;6523;49.758;6.120;2023-08-06T10:14:57;1.00;;;0.50;;
12910;SDS011;6523;49.758;6.120;2023-08-06T10:17:26;1.70;;;0.73;;
12910;SDS011;6523;49.758;6.120;2023-08-06T10:19:53;0.67;;;0.60;;
12910;SDS011;6523;49.758;6.120;2023-08-06T10:22:21;1.03;;;0.80;;
12910;SDS011;6523;49.758;6.120;2023-08-06T10:27:20;1.13;;;0.57;;
12910;SDS011;6523;49.758;6.120;2023-08-06T10:29:47;2.17;;;0.70;;
12910;SDS011;6523;49.758;6.120;2023-08-06T10:32:13;0.70;;;0.60;;
12910;SDS011;6523;49.758;6.120;2023-08-06T10:34:55;0.80;;;0.57;;
12910;SDS011;6523;49.758;6.120;2023-08-06T10:37:22;1.77;;;0.83;;
12910;SDS011;6523;49.758;6.120;2023-08-06T10:39:51;2.00;;;1.00;;
12910;SDS011;6523;49.758;6.120;2023-08-06T10:42:26;1.80;;;0.90;;
12910;SDS011;6523;49.758;6.120;2023-08-06T10:45:10;1.33;;;0.93;;
12910;SDS011;6523;49.758;6.120;2023-08-06T10:47:40;1.80;;;0.90;;
12910;SDS011;6523;49.758;6.120;2023-08-06T10:50:16;1.67;;;1.17;;
12910;SDS011;6523;49.758;6.120;2023-08-06T10:52:45;2.20;;;0.90;;
12910;SDS011;6523;49.758;6.120;2023-08-06T10:55:12;1.63;;;1.03;;
12910;SDS011;6523;49.758;6.120;2023-08-06T10:57:39;1.67;;;1.23;;
12910;SDS011;6523;49.758;6.120;2023-08-06T11:00:05;2.23;;;1.17;;
12910;SDS011;6523;49.758;6.120;2023-08-06T11:02:38;1.27;;;1.13;;
12910;SDS011;6523;49.758;6.120;2023-08-06T11:05:10;4.63;;;1.40;;
12910;SDS011;6523;49.758;6.120;2023-08-06T11:07:36;1.77;;;1.30;;
12910;SDS011;6523;49.758;6.120;2023-08-06T11:12:29;1.80;;;1.30;;
12910;SDS011;6523;49.758;6.120;2023-08-06T11:14:55;1.90;;;1.10;;
12910;SDS011;6523;49.758;6.120;2023-08-06T11:17:21;1.10;;;1.00;;
12910;SDS011;6523;49.758;6.120;2023-08-06T11:19:47;1.50;;;1.00;;
12910;SDS011;6523;49.758;6.120;2023-08-06T11:22:14;1.80;;;1.00;;
12910;SDS011;6523;49.758;6.120;2023-08-06T11:24:39;1.80;;;1.30;;
12910;SDS011;6523;49.758;6.120;2023-08-06T11:27:15;2.57;;;1.00;;
12910;SDS011;6523;49.758;6.120;2023-08-06T11:29:42;1.40;;;1.10;;
12910;SDS011;6523;49.758;6.120;2023-08-06T11:32:08;2.50;;;1.23;;
12910;SDS011;6523;49.758;6.120;2023-08-06T11:34:35;2.17;;;1.60;;
12910;SDS011;6523;49.758;6.120;2023-08-06T11:37:04;1.07;;;0.90;;
12910;SDS011;6523;49.758;6.120;2023-08-06T11:39:34;1.80;;;0.90;;
12910;SDS011;6523;49.758;6.120;2023-08-06T11:42:02;1.27;;;0.90;;
12910;SDS011;6523;49.758;6.120;2023-08-06T11:44:32;2.00;;;1.03;;
12910;SDS011;6523;49.758;6.120;2023-08-06T11:47:01;1.00;;;0.90;;
12910;SDS011;6523;49.758;6.120;2023-08-06T11:52:10;0.90;;;0.83;;
12910;SDS011;6523;49.758;6.120;2023-08-06T11:55:07;1.50;;;0.80;;
12910;SDS011;6523;49.758;6.120;2023-08-06T11:57:35;1.40;;;0.90;;
12910;SDS011;6523;49.758;6.120;2023-08-06T12:02:32;1.63;;;0.80;;
12910;SDS011;6523;49.758;6.120;2023-08-06T12:05:09;1.80;;;0.90;;
12910;SDS011;6523;49.758;6.120;2023-08-06T12:07:38;0.77;;;0.70;;
12910;SDS011;6523;49.758;6.120;2023-08-06T12:10:06;1.70;;;0.90;;
12910;SDS011;6523;49.758;6.120;2023-08-06T12:12:32;2.63;;;0.90;;
12910;SDS011;6523;49.758;6.120;2023-08-06T12:14:59;1.43;;;0.80;;
12910;SDS011;6523;49.758;6.120;2023-08-06T12:17:25;0.60;;;0.60;;
12910;SDS011;6523;49.758;6.120;2023-08-06T12:19:50;3.03;;;0.80;;
12910;SDS011;6523;49.758;6.120;2023-08-06T12:22:16;1.17;;;0.77;;
12910;SDS011;6523;49.758;6.120;2023-08-06T12:24:43;1.47;;;0.80;;
12910;SDS011;6523;49.758;6.120;2023-08-06T12:27:09;0.93;;;0.83;;
12910;SDS011;6523;49.758;6.120;2023-08-06T12:29:35;3.10;;;0.80;;
12910;SDS011;6523;49.758;6.120;2023-08-06T12:32:02;1.20;;;1.10;;
12910;SDS011;6523;49.758;6.120;2023-08-06T12:34:28;1.80;;;0.90;;
12910;SDS011;6523;49.758;6.120;2023-08-06T12:36:54;1.63;;;1.20;;
12910;SDS011;6523;49.758;6.120;2023-08-06T12:39:19;2.00;;;0.90;;
12910;SDS011;6523;49.758;6.120;2023-08-06T12:41:45;2.07;;;0.93;;
12910;SDS011;6523;49.758;6.120;2023-08-06T12:44:11;1.13;;;0.70;;
12910;SDS011;6523;49.758;6.120;2023-08-06T12:46:37;1.23;;;0.97;;
12910;SDS011;6523;49.758;6.120;2023-08-06T12:49:02;1.20;;;1.10;;
12910;SDS011;6523;49.758;6.120;2023-08-06T12:51:28;1.53;;;0.90;;
12910;SDS011;6523;49.758;6.120;2023-08-06T12:53:54;1.20;;;1.00;;
12910;SDS011;6523;49.758;6.120;2023-08-06T12:56:20;1.10;;;1.00;;
12910;SDS011;6523;49.758;6.120;2023-08-06T12:58:45;2.00;;;1.20;;
12910;SDS011;6523;49.758;6.120;2023-08-06T13:01:11;1.90;;;0.93;;
12910;SDS011;6523;49.758;6.120;2023-08-06T13:03:36;1.00;;;0.90;;
12910;SDS011;6523;49.758;6.120;2023-08-06T13:06:02;0.83;;;0.60;;
12910;SDS011;6523;49.758;6.120;2023-08-06T13:08:27;1.17;;;0.93;;
12910;SDS011;6523;49.758;6.120;2023-08-06T13:10:53;1.27;;;0.80;;
12910;SDS011;6523;49.758;6.120;2023-08-06T13:13:18;1.57;;;0.87;;
12910;SDS011;6523;49.758;6.120;2023-08-06T13:15:44;1.07;;;0.90;;
12910;SDS011;6523;49.758;6.120;2023-08-06T13:18:09;0.80;;;0.80;;
12910;SDS011;6523;49.758;6.120;2023-08-06T13:20:38;0.90;;;0.90;;
12910;SDS011;6523;49.758;6.120;2023-08-06T13:23:07;0.70;;;0.70;;
12910;SDS011;6523;49.758;6.120;2023-08-06T13:25:32;3.03;;;1.00;;
12910;SDS011;6523;49.758;6.120;2023-08-06T13:28:01;0.70;;;0.70;;
12910;SDS011;6523;49.758;6.120;2023-08-06T13:30:28;1.87;;;0.90;;
12910;SDS011;6523;49.758;6.120;2023-08-06T13:32:53;2.00;;;0.90;;
12910;SDS011;6523;49.758;6.120;2023-08-06T13:35:21;0.70;;;0.70;;
12910;SDS011;6523;49.758;6.120;2023-08-06T13:37:47;1.40;;;0.97;;
12910;SDS011;6523;49.758;6.120;2023-08-06T13:40:13;1.10;;;1.03;;
12910;SDS011;6523;49.758;6.120;2023-08-06T13:42:38;1.10;;;1.00;;
12910;SDS011;6523;49.758;6.120;2023-08-06T13:45:04;1.17;;;1.07;;
12910;SDS011;6523;49.758;6.120;2023-08-06T13:47:31;1.93;;;0.83;;
12910;SDS011;6523;49.758;6.120;2023-08-06T13:49:56;1.07;;;0.90;;
12910;SDS011;6523;49.758;6.120;2023-08-06T13:52:22;2.57;;;1.10;;
12910;SDS011;6523;49.758;6.120;2023-08-06T13:54:48;2.77;;;0.90;;
12910;SDS011;6523;49.758;6.120;2023-08-06T13:57:13;0.87;;;0.77;;
12910;SDS011;6523;49.758;6.120;2023-08-06T13:59:39;1.87;;;1.07;;
12910;SDS011;6523;49.758;6.120;2023-08-06T14:02:05;2.10;;;0.80;;
12910;SDS011;6523;49.758;6.120;2023-08-06T14:04:31;0.90;;;0.90;;
12910;SDS011;6523;49.758;6.120;2023-08-06T14:06:56;0.77;;;0.70;;
12910;SDS011;6523;49.758;6.120;2023-08-06T14:09:22;1.87;;;0.80;;
12910;SDS011;6523;49.758;6.120;2023-08-06T14:11:47;2.13;;;1.03;;
12910;SDS011;6523;49.758;6.120;2023-08-06T14:14:13;0.90;;;0.90;;
12910;SDS011;6523;49.758;6.120;2023-08-06T14:16:38;2.07;;;0.90;;
12910;SDS011;6523;49.758;6.120;2023-08-06T14:19:04;3.43;;;1.20;;
12910;SDS011;6523;49.758;6.120;2023-08-06T14:21:29;1.23;;;1.00;;
12910;SDS011;6523;49.758;6.120;2023-08-06T14:23:55;2.97;;;1.00;;
12910;SDS011;6523;49.758;6.120;2023-08-06T14:26:20;2.70;;;1.07;;
12910;SDS011;6523;49.758;6.120;2023-08-06T14:28:46;1.33;;;0.73;;
12910;SDS011;6523;49.758;6.120;2023-08-06T14:31:11;1.83;;;1.00;;
12910;SDS011;6523;49.758;6.120;2023-08-06T14:33:37;1.30;;;1.00;;
12910;SDS011;6523;49.758;6.120;2023-08-06T14:36:03;0.80;;;0.80;;
12910;SDS011;6523;49.758;6.120;2023-08-06T14:38:28;1.53;;;1.03;;
12910;SDS011;6523;49.758;6.120;2023-08-06T14:40:54;2.00;;;0.97;;
12910;SDS011;6523;49.758;6.120;2023-08-06T14:43:19;3.83;;;1.30;;
12910;SDS011;6523;49.758;6.120;2023-08-06T14:45:45;1.10;;;1.00;;
12910;SDS011;6523;49.758;6.120;2023-08-06T14:48:11;2.97;;;1.20;;
12910;SDS011;6523;49.758;6.120;2023-08-06T14:50:36;1.10;;;1.00;;
12910;SDS011;6523;49.758;6.120;2023-08-06T14:53:04;2.67;;;0.90;;
12910;SDS011;6523;49.758;6.120;2023-08-06T14:55:30;1.30;;;1.13;;
12910;SDS011;6523;49.758;6.120;2023-08-06T14:57:57;1.33;;;1.00;;
12910;SDS011;6523;49.758;6.120;2023-08-06T15:00:22;2.30;;;0.90;;
12910;SDS011;6523;49.758;6.120;2023-08-06T15:02:48;1.30;;;0.80;;
12910;SDS011;6523;49.758;6.120;2023-08-06T15:05:14;1.60;;;1.10;;
12910;SDS011;6523;49.758;6.120;2023-08-06T15:07:39;1.93;;;0.80;;